Time;durP1;ratioP1;P1;durP2;ratioP2;P2;SDS_P1;SDS_P2;PMS_P1;PMS_P2;Temp;Humidity;BMP_temperature;BMP_pressure;BME280_temperature;BME280_humidity;BME280_pressure;Samples;Min_cycle;Max_cycle;Signal;HPM_P1;HPM_P2
2020/12/16 00:01:43;;;;;;;9.23;6.60;;;9.70;99.90;;;;;;5035364;28;20200;-77
2020/12/16 00:04:10;;;;;;;10.35;5.95;;;9.70;99.90;;;;;;5033469;28;20224;-78
2020/12/16 00:06:37;;;;;;;7.10;5.75;;;9.70;99.90;;;;;;5036068;28;20291;-77
2020/12/16 00:09:03;;;;;;;9.30;5.50;;;9.70;99.90;;;;;;5035236;28;20290;-78
2020/12/16 00:11:29;;;;;;;10.07;5.80;;;9.80;99.90;;;;;;5037863;28;20200;-78
2020/12/16 00:13:55;;;;;;;6.60;4.90;;;9.80;99.90;;;;;;5034926;28;20231;-77
2020/12/16 00:16:22;;;;;;;9.80;6.43;;;9.80;99.90;;;;;;5036827;28;20264;-77
2020/12/16 00:18:48;;;;;;;7.63;5.85;;;9.80;99.90;;;;;;5035607;28;20330;-77
2020/12/16 00:21:21;;;;;;;8.02;5.80;;;9.80;99.90;;;;;;5032320;28;20566;-76
2020/12/16 00:23:48;;;;;;;8.07;6.00;;;9.70;99.90;;;;;;5032364;28;20216;-72
2020/12/16 00:26:14;;;;;;;10.55;5.68;;;9.60;99.90;;;;;;5031569;28;20199;-77
2020/12/16 00:28:41;;;;;;;6.80;5.28;;;9.60;99.90;;;;;;5032110;28;20267;-75
2020/12/16 00:31:07;;;;;;;10.63;6.53;;;9.60;99.90;;;;;;5031941;28;20204;-77
2020/12/16 00:33:34;;;;;;;10.88;6.43;;;9.60;99.90;;;;;;5032392;28;20299;-76
2020/12/16 00:36:01;;;;;;;7.90;5.95;;;9.50;99.90;;;;;;5032052;28;20216;-76
2020/12/16 00:38:28;;;;;;;8.43;5.93;;;9.50;99.90;;;;;;5032359;28;20200;-77
2020/12/16 00:40:54;;;;;;;9.15;6.28;;;9.50;99.90;;;;;;5032136;28;20294;-77
2020/12/16 00:43:20;;;;;;;10.15;5.90;;;9.50;99.90;;;;;;5032015;28;20385;-77
2020/12/16 00:45:47;;;;;;;11.23;6.70;;;9.50;99.90;;;;;;5032246;28;20287;-76
2020/12/16 00:48:13;;;;;;;11.30;6.35;;;9.20;99.90;;;;;;5032123;28;20233;-77
2020/12/16 00:50:39;;;;;;;9.95;6.95;;;9.00;99.90;;;;;;5035889;28;20291;-77
2020/12/16 00:53:06;;;;;;;11.50;6.90;;;9.10;99.90;;;;;;5036223;28;20713;-76
2020/12/16 00:55:33;;;;;;;10.82;6.25;;;9.10;99.90;;;;;;5035835;28;20269;-74
2020/12/16 00:57:59;;;;;;;7.28;5.72;;;9.10;99.90;;;;;;5035991;28;20249;-76
2020/12/16 01:00:26;;;;;;;11.45;6.00;;;9.20;99.90;;;;;;5037572;28;20291;-77
2020/12/16 01:02:52;;;;;;;7.45;5.75;;;9.20;99.90;;;;;;5037783;28;20616;-77
2020/12/16 01:05:20;;;;;;;8.75;6.55;;;9.20;99.90;;;;;;5033972;28;20228;-75
2020/12/16 01:07:46;;;;;;;10.00;6.72;;;9.30;99.90;;;;;;5036761;28;20627;-75
2020/12/16 01:10:15;;;;;;;12.30;7.90;;;9.40;99.90;;;;;;5036078;28;20208;-75
2020/12/16 01:12:45;;;;;;;8.82;6.70;;;9.50;99.90;;;;;;5036297;28;20227;-76
2020/12/16 01:15:14;;;;;;;10.57;6.47;;;9.40;99.90;;;;;;5035477;28;20277;-73
2020/12/16 01:17:41;;;;;;;8.38;5.53;;;9.40;99.90;;;;;;5033456;28;20540;-75
2020/12/16 01:20:09;;;;;;;8.10;6.15;;;9.40;99.90;;;;;;5041043;28;20196;-79
2020/12/16 01:22:38;;;;;;;8.70;6.57;;;9.40;99.90;;;;;;5038569;28;20207;-78
2020/12/16 01:25:05;;;;;;;9.43;6.10;;;9.40;99.90;;;;;;5037794;28;20203;-76
2020/12/16 01:27:32;;;;;;;9.77;6.40;;;9.50;99.90;;;;;;5036399;28;20196;-78
2020/12/16 01:29:59;;;;;;;9.98;6.10;;;9.40;99.90;;;;;;5035612;28;20287;-77
2020/12/16 01:32:25;;;;;;;8.48;6.07;;;9.40;99.90;;;;;;5036259;28;20299;-72
2020/12/16 01:34:52;;;;;;;9.85;6.00;;;9.50;99.90;;;;;;5036948;28;20231;-75
2020/12/16 01:37:18;;;;;;;9.70;6.00;;;9.50;99.90;;;;;;5037167;28;20226;-77
2020/12/16 01:39:45;;;;;;;11.20;6.93;;;9.60;99.90;;;;;;5036487;28;20207;-77
2020/12/16 01:42:13;;;;;;;9.20;6.38;;;9.60;99.90;;;;;;5035747;28;20287;-76
2020/12/16 01:44:40;;;;;;;8.27;6.20;;;9.70;99.90;;;;;;5035346;28;20216;-77
2020/12/16 01:47:07;;;;;;;8.43;6.07;;;9.80;99.90;;;;;;5036131;28;20283;-75
2020/12/16 01:49:34;;;;;;;7.07;5.40;;;9.80;99.90;;;;;;5036269;28;20197;-75
2020/12/16 01:52:05;;;;;;;9.25;5.93;;;9.70;99.90;;;;;;5035463;28;20206;-75
2020/12/16 01:54:34;;;;;;;9.80;6.32;;;9.70;99.90;;;;;;5033302;28;20315;-75
2020/12/16 01:57:04;;;;;;;9.02;6.32;;;9.50;99.90;;;;;;5036558;28;20540;-75
2020/12/16 01:59:34;;;;;;;8.93;6.28;;;9.40;99.90;;;;;;5033404;28;20277;-73
2020/12/16 02:02:02;;;;;;;10.07;6.72;;;9.40;99.90;;;;;;5035740;28;20200;-75
2020/12/16 02:04:33;;;;;;;9.05;6.47;;;9.60;99.90;;;;;;5035666;28;20223;-74
2020/12/16 02:07:06;;;;;;;8.55;6.43;;;9.60;99.90;;;;;;5034557;28;20197;-75
2020/12/16 02:09:38;;;;;;;10.75;7.18;;;9.70;99.90;;;;;;5032561;28;20675;-74
2020/12/16 02:12:10;;;;;;;10.05;7.00;;;9.80;99.90;;;;;;5034599;28;20207;-76
2020/12/16 02:14:36;;;;;;;9.93;6.78;;;9.90;99.90;;;;;;5034073;28;20230;-76
2020/12/16 02:17:03;;;;;;;9.57;6.30;;;9.70;99.90;;;;;;5034306;28;20283;-76
2020/12/16 02:19:42;;;;;;;10.73;6.82;;;9.60;99.90;;;;;;5034750;28;20218;-76
2020/12/16 02:22:10;;;;;;;9.90;7.00;;;9.70;99.90;;;;;;5033890;28;20611;-78
2020/12/16 02:24:49;;;;;;;9.80;6.85;;;9.60;99.90;;;;;;5033981;28;20294;-77
2020/12/16 02:27:15;;;;;;;11.45;7.07;;;9.30;99.90;;;;;;5033779;28;20211;-78
2020/12/16 02:29:42;;;;;;;10.60;7.28;;;9.30;99.90;;;;;;5035531;28;20290;-76
2020/12/16 02:32:10;;;;;;;9.63;7.07;;;9.20;99.90;;;;;;5034259;28;20234;-76
2020/12/16 02:34:36;;;;;;;11.07;6.50;;;9.20;99.90;;;;;;5034531;28;20676;-77
2020/12/16 02:37:03;;;;;;;9.48;7.10;;;9.40;99.90;;;;;;5034771;28;20206;-77
2020/12/16 02:39:29;;;;;;;10.73;6.97;;;9.40;99.90;;;;;;5035016;28;20291;-78
2020/12/16 02:42:00;;;;;;;9.65;6.93;;;9.50;99.90;;;;;;5035696;28;20210;-77
2020/12/16 02:44:27;;;;;;;11.98;6.95;;;9.60;99.90;;;;;;5035236;28;20224;-76
2020/12/16 02:46:57;;;;;;;9.57;6.68;;;9.60;99.90;;;;;;5034579;28;20202;-74
2020/12/16 02:49:23;;;;;;;8.63;6.13;;;9.60;99.90;;;;;;5035637;28;20214;-74
2020/12/16 02:51:50;;;;;;;9.50;6.55;;;9.70;99.90;;;;;;5035664;28;20265;-74
2020/12/16 02:54:17;;;;;;;8.25;6.00;;;9.70;99.90;;;;;;5034943;28;20231;-76
2020/12/16 02:56:47;;;;;;;9.15;7.03;;;9.70;99.90;;;;;;5035097;28;20214;-75
2020/12/16 02:59:15;;;;;;;10.65;6.30;;;9.70;99.90;;;;;;5036094;28;20342;-72
2020/12/16 03:01:41;;;;;;;8.20;6.20;;;9.80;99.90;;;;;;5036524;28;20562;-72
2020/12/16 03:04:07;;;;;;;13.10;6.28;;;9.80;99.90;;;;;;5036253;28;20230;-72
2020/12/16 03:06:34;;;;;;;7.18;6.20;;;9.90;99.90;;;;;;5036642;28;20287;-72
2020/12/16 03:09:00;;;;;;;9.18;6.43;;;9.60;99.90;;;;;;5036128;28;20310;-73
2020/12/16 03:11:26;;;;;;;12.45;7.70;;;9.40;99.90;;;;;;5036188;28;20664;-72
2020/12/16 03:13:53;;;;;;;9.85;7.10;;;9.30;99.90;;;;;;5036156;28;20314;-72
2020/12/16 03:16:20;;;;;;;11.70;6.93;;;9.10;99.90;;;;;;5036065;28;20314;-71
2020/12/16 03:18:47;;;;;;;12.13;7.57;;;8.90;99.90;;;;;;5036005;28;20227;-72
2020/12/16 03:21:20;;;;;;;14.77;8.35;;;8.90;99.90;;;;;;5036137;28;20222;-72
2020/12/16 03:23:46;;;;;;;10.48;7.20;;;9.10;99.90;;;;;;5036202;28;20305;-72
2020/12/16 03:26:13;;;;;;;12.20;7.88;;;9.30;99.90;;;;;;5036159;28;20650;-72
2020/12/16 03:28:39;;;;;;;9.70;7.60;;;9.40;99.90;;;;;;5036364;28;20210;-72
2020/12/16 03:31:05;;;;;;;11.57;7.40;;;9.50;99.90;;;;;;5035504;28;20307;-72
2020/12/16 03:33:32;;;;;;;10.73;7.38;;;9.50;99.90;;;;;;5036158;28;20238;-72
2020/12/16 03:35:59;;;;;;;10.52;7.30;;;9.50;99.90;;;;;;5035986;28;20287;-72
2020/12/16 03:38:25;;;;;;;11.30;7.07;;;9.40;99.90;;;;;;5035846;28;20208;-72
2020/12/16 03:40:51;;;;;;;13.57;7.97;;;9.40;99.90;;;;;;5035505;28;20290;-72
2020/12/16 03:43:18;;;;;;;8.85;6.18;;;9.30;99.90;;;;;;5035825;28;20362;-72
2020/12/16 03:45:44;;;;;;;11.18;7.38;;;9.40;99.90;;;;;;5035427;28;20609;-72
2020/12/16 03:48:10;;;;;;;10.52;5.93;;;9.50;99.90;;;;;;5035729;28;20299;-72
2020/12/16 03:50:37;;;;;;;8.15;6.25;;;9.40;99.90;;;;;;5035506;28;20294;-72
2020/12/16 03:53:04;;;;;;;11.63;7.63;;;9.40;99.90;;;;;;5035772;28;20702;-72
2020/12/16 03:55:30;;;;;;;12.55;7.10;;;9.50;99.90;;;;;;5035694;28;20228;-72
2020/12/16 03:57:56;;;;;;;9.57;6.85;;;9.50;99.90;;;;;;5035516;28;20677;-72
2020/12/16 04:00:22;;;;;;;10.82;7.30;;;9.60;99.90;;;;;;5035518;28;20339;-72
2020/12/16 04:02:49;;;;;;;9.93;7.13;;;9.70;99.90;;;;;;5035621;28;20663;-72
2020/12/16 04:05:15;;;;;;;12.27;7.07;;;9.70;99.90;;;;;;5034968;28;20322;-72
2020/12/16 04:07:42;;;;;;;8.57;6.63;;;9.80;99.90;;;;;;5034982;28;20685;-72
2020/12/16 04:10:08;;;;;;;11.70;7.65;;;9.50;99.90;;;;;;5035450;28;20745;-73
2020/12/16 04:12:35;;;;;;;9.82;7.50;;;9.30;99.90;;;;;;5035302;28;20215;-72
2020/12/16 04:15:01;;;;;;;12.20;8.00;;;9.20;99.90;;;;;;5035324;28;20311;-72
2020/12/16 04:17:27;;;;;;;16.20;7.38;;;9.20;99.90;;;;;;5035394;28;20210;-72
2020/12/16 04:19:54;;;;;;;13.45;7.05;;;9.00;99.90;;;;;;5035611;28;20243;-72
2020/12/16 04:22:20;;;;;;;13.25;8.23;;;9.00;99.90;;;;;;5035195;28;20290;-72
2020/12/16 04:24:47;;;;;;;11.40;7.43;;;9.10;99.90;;;;;;5034812;28;20227;-71
2020/12/16 04:27:13;;;;;;;9.50;6.95;;;9.10;99.90;;;;;;5035482;28;20211;-72
2020/12/16 04:29:40;;;;;;;16.67;8.60;;;8.90;99.90;;;;;;5035195;28;20599;-72
2020/12/16 04:32:06;;;;;;;16.08;8.98;;;8.70;99.90;;;;;;5035492;28;20667;-72
2020/12/16 04:34:33;;;;;;;12.48;8.02;;;8.60;99.90;;;;;;5034796;28;20315;-71
2020/12/16 04:36:59;;;;;;;11.95;8.05;;;8.70;99.90;;;;;;5034805;28;20602;-72
2020/12/16 04:39:26;;;;;;;14.65;8.75;;;8.90;99.90;;;;;;5034839;28;20295;-72
2020/12/16 04:41:53;;;;;;;16.20;9.13;;;9.00;99.90;;;;;;5035051;28;20334;-72
2020/12/16 04:44:20;;;;;;;14.27;8.95;;;9.10;99.90;;;;;;5034745;28;20338;-72
2020/12/16 04:46:48;;;;;;;13.38;8.32;;;9.10;99.90;;;;;;5034249;28;20295;-72
2020/12/16 04:49:15;;;;;;;15.40;8.25;;;9.10;99.90;;;;;;5034945;28;20200;-72
2020/12/16 04:51:43;;;;;;;10.68;7.63;;;9.00;99.90;;;;;;5034626;28;20203;-72
2020/12/16 04:54:10;;;;;;;12.48;8.02;;;8.90;99.90;;;;;;5035305;28;20250;-73
2020/12/16 04:56:37;;;;;;;12.50;8.60;;;8.90;99.90;;;;;;5034623;28;20224;-72
2020/12/16 04:59:05;;;;;;;14.88;7.80;;;9.00;99.90;;;;;;5034568;28;20246;-72
2020/12/16 05:01:31;;;;;;;15.10;8.30;;;9.00;99.90;;;;;;5034723;28;20204;-72
2020/12/16 05:03:58;;;;;;;12.82;8.48;;;8.90;99.90;;;;;;5034682;28;20226;-72
2020/12/16 05:06:38;;;;;;;12.27;8.75;;;8.50;99.90;;;;;;5034236;28;20693;-71
2020/12/16 05:09:06;;;;;;;11.20;8.38;;;8.20;99.90;;;;;;5034252;28;20246;-73
2020/12/16 05:11:37;;;;;;;14.63;9.10;;;8.00;99.90;;;;;;5034677;28;20668;-72
2020/12/16 05:14:18;;;;;;;15.82;9.23;;;7.90;99.90;;;;;;5034570;28;20224;-73
2020/12/16 05:16:53;;;;;;;14.27;7.88;;;7.70;99.90;;;;;;5035161;28;20231;-74
2020/12/16 05:19:29;;;;;;;12.13;7.90;;;7.80;99.90;;;;;;5036333;28;20199;-72
2020/12/16 05:22:14;;;;;;;12.23;8.70;;;8.00;99.90;;;;;;5034160;28;20274;-72
2020/12/16 05:24:42;;;;;;;15.02;9.27;;;8.10;99.90;;;;;;5033466;28;20239;-71
2020/12/16 05:27:09;;;;;;;10.32;8.05;;;8.20;99.90;;;;;;5034267;28;20597;-72
2020/12/16 05:29:38;;;;;;;18.30;9.18;;;8.30;99.90;;;;;;5034112;28;20210;-72
2020/12/16 05:32:18;;;;;;;13.35;8.15;;;8.30;99.90;;;;;;5034461;28;20215;-72
2020/12/16 05:34:45;;;;;;;17.73;10.52;;;8.20;99.90;;;;;;5035044;28;20227;-71
2020/12/16 05:37:30;;;;;;;11.80;8.35;;;8.30;99.90;;;;;;5038078;28;20212;-72
2020/12/16 05:40:02;;;;;;;16.13;9.43;;;8.00;99.90;;;;;;5038368;28;20204;-72
2020/12/16 05:42:28;;;;;;;12.60;8.65;;;7.80;99.90;;;;;;5038125;28;20216;-72
2020/12/16 05:44:57;;;;;;;14.88;8.88;;;7.80;99.90;;;;;;5037815;28;20230;-72
2020/12/16 05:47:24;;;;;;;12.50;8.32;;;7.90;99.90;;;;;;5037994;28;20558;-72
2020/12/16 05:49:51;;;;;;;12.02;8.15;;;8.00;99.90;;;;;;5037768;28;20208;-72
2020/12/16 05:52:17;;;;;;;16.63;9.00;;;8.10;99.90;;;;;;5038048;28;20253;-72
2020/12/16 05:54:50;;;;;;;11.63;7.82;;;8.20;99.90;;;;;;5037586;28;20227;-71
2020/12/16 05:57:18;;;;;;;10.63;8.10;;;8.00;99.90;;;;;;5037734;28;20223;-72
2020/12/16 06:00:01;;;;;;;17.80;8.60;;;7.80;99.90;;;;;;5037339;28;20712;-72
2020/12/16 06:02:34;;;;;;;13.77;8.88;;;7.60;99.90;;;;;;5036983;28;20212;-72
2020/12/16 06:05:00;;;;;;;13.48;8.15;;;7.50;99.90;;;;;;5037720;28;20238;-71
2020/12/16 06:07:28;;;;;;;13.23;7.68;;;7.40;99.90;;;;;;5037708;28;20205;-72
2020/12/16 06:09:56;;;;;;;12.82;8.18;;;7.60;99.90;;;;;;5037769;28;20208;-73
2020/12/16 06:12:27;;;;;;;14.77;7.97;;;7.80;99.90;;;;;;5037614;28;20200;-72
2020/12/16 06:15:05;;;;;;;12.98;7.72;;;7.90;99.90;;;;;;5036894;28;20231;-71
2020/12/16 06:17:36;;;;;;;13.90;8.18;;;7.80;99.90;;;;;;5037251;28;20195;-72
2020/12/16 06:20:06;;;;;;;12.57;8.52;;;7.70;99.90;;;;;;5037488;28;20676;-72
2020/12/16 06:22:35;;;;;;;14.90;8.82;;;7.80;99.90;;;;;;5037451;28;20239;-72
2020/12/16 06:25:06;;;;;;;14.82;7.95;;;7.90;99.90;;;;;;5036818;28;20243;-72
2020/12/16 06:27:41;;;;;;;12.95;7.85;;;8.10;99.90;;;;;;5036450;28;20220;-72
2020/12/16 06:30:11;;;;;;;10.50;7.75;;;8.20;99.90;;;;;;5036300;28;20261;-72
2020/12/16 06:32:41;;;;;;;11.30;7.25;;;8.20;99.90;;;;;;5036150;28;20215;-72
2020/12/16 06:35:13;;;;;;;13.38;7.72;;;8.10;99.90;;;;;;5036022;28;20227;-71
2020/12/16 06:37:39;;;;;;;11.38;6.90;;;8.20;99.90;;;;;;5035921;28;20227;-72
2020/12/16 06:40:05;;;;;;;9.98;6.97;;;8.30;99.90;;;;;;5035586;28;20207;-72
2020/12/16 06:42:33;;;;;;;13.27;7.50;;;8.30;99.90;;;;;;5035665;28;20210;-72
2020/12/16 06:45:13;;;;;;;10.88;7.93;;;8.30;99.90;;;;;;5035920;28;20201;-72
2020/12/16 06:47:40;;;;;;;13.77;8.45;;;8.20;99.90;;;;;;5035160;28;20208;-72
2020/12/16 06:50:19;;;;;;;13.90;8.13;;;7.90;99.90;;;;;;5035561;28;20216;-72
2020/12/16 06:52:47;;;;;;;15.95;7.75;;;7.90;99.90;;;;;;5035948;28;20214;-72
2020/12/16 06:55:13;;;;;;;10.15;7.00;;;7.90;99.90;;;;;;5035354;28;20694;-72
2020/12/16 06:57:48;;;;;;;11.45;6.80;;;7.80;99.90;;;;;;5035558;28;20207;-72
2020/12/16 07:00:20;;;;;;;12.63;6.45;;;7.60;99.90;;;;;;5035555;28;20745;-72
2020/12/16 07:02:48;;;;;;;11.10;6.78;;;7.50;99.90;;;;;;5035553;28;20216;-72
2020/12/16 07:05:40;;;;;;;11.18;7.50;;;7.60;99.90;;;;;;5035372;28;20671;-72
2020/12/16 07:08:07;;;;;;;12.02;7.07;;;7.70;99.90;;;;;;5035708;28;20203;-72
2020/12/16 07:10:50;;;;;;;11.32;7.25;;;7.60;99.90;;;;;;5035581;28;20210;-72
2020/12/16 07:13:28;;;;;;;11.07;7.93;;;7.50;99.90;;;;;;5035352;28;20228;-72
2020/12/16 07:16:02;;;;;;;11.95;7.80;;;7.60;99.90;;;;;;5035390;28;20228;-71
2020/12/16 07:18:41;;;;;;;12.30;7.60;;;7.70;99.90;;;;;;5035547;28;20196;-72
2020/12/16 07:21:22;;;;;;;10.20;7.22;;;7.90;99.90;;;;;;5035608;28;20211;-72
2020/12/16 07:23:52;;;;;;;13.13;7.85;;;8.00;99.90;;;;;;5035022;28;20220;-72
2020/12/16 07:26:22;;;;;;;17.02;7.30;;;8.00;99.90;;;;;;5034643;28;20207;-72
2020/12/16 07:28:48;;;;;;;12.30;7.70;;;8.00;99.90;;;;;;5035057;28;20204;-72
2020/12/16 07:31:16;;;;;;;10.60;6.53;;;7.80;99.90;;;;;;5034243;28;20302;-72
2020/12/16 07:33:42;;;;;;;13.40;7.05;;;7.70;99.90;;;;;;5034593;28;20227;-72
2020/12/16 07:36:09;;;;;;;10.57;6.57;;;7.50;99.90;;;;;;5034117;28;20686;-72
2020/12/16 07:38:36;;;;;;;11.05;7.70;;;7.40;99.90;;;;;;5034473;28;20212;-72
2020/12/16 07:41:02;;;;;;;11.63;6.88;;;7.50;99.90;;;;;;5034635;28;20203;-72
2020/12/16 07:43:29;;;;;;;10.70;6.45;;;7.60;99.90;;;;;;5034679;28;20315;-72
2020/12/16 07:46:06;;;;;;;11.45;7.25;;;7.70;99.90;;;;;;5034537;28;20204;-71
2020/12/16 07:48:34;;;;;;;10.63;7.38;;;7.80;99.90;;;;;;5035040;28;20236;-72
2020/12/16 07:51:05;;;;;;;8.93;6.40;;;8.00;99.90;;;;;;5034509;28;20659;-72
2020/12/16 07:53:32;;;;;;;11.85;6.75;;;7.80;99.90;;;;;;5034373;28;20223;-72
2020/12/16 07:56:00;;;;;;;12.65;7.40;;;7.70;99.90;;;;;;5033856;28;20702;-72
2020/12/16 07:58:26;;;;;;;10.90;6.75;;;7.80;99.90;;;;;;5034138;28;20204;-72
2020/12/16 08:01:04;;;;;;;13.50;7.15;;;7.90;99.90;;;;;;5035121;28;20569;-72
2020/12/16 08:03:31;;;;;;;13.13;7.65;;;7.90;99.90;;;;;;5035044;28;20219;-73
2020/12/16 08:05:59;;;;;;;17.98;7.93;;;7.90;99.90;;;;;;5035377;28;20196;-72
2020/12/16 08:08:25;;;;;;;13.55;7.78;;;7.80;99.90;;;;;;5035161;28;20299;-72
2020/12/16 08:10:52;;;;;;;13.30;8.13;;;7.60;99.90;;;;;;5035002;28;20200;-72
2020/12/16 08:13:22;;;;;;;11.10;7.78;;;7.60;99.90;;;;;;5034369;28;20230;-72
2020/12/16 08:15:49;;;;;;;13.57;8.60;;;7.60;99.90;;;;;;5034677;28;20593;-72
2020/12/16 08:18:16;;;;;;;11.85;8.20;;;7.70;99.90;;;;;;5034270;28;20419;-72
2020/12/16 08:20:43;;;;;;;9.95;6.93;;;7.90;99.90;;;;;;5034183;28;20208;-72
2020/12/16 08:23:13;;;;;;;10.85;6.57;;;7.80;99.90;;;;;;5034151;28;20289;-72
2020/12/16 08:25:40;;;;;;;11.82;7.38;;;7.70;99.90;;;;;;5033886;28;20188;-72
2020/12/16 08:28:07;;;;;;;11.55;6.85;;;7.80;99.90;;;;;;5033960;28;20204;-73
2020/12/16 08:30:35;;;;;;;11.48;7.25;;;8.00;99.90;;;;;;5033238;28;20208;-73
2020/12/16 08:33:03;;;;;;;8.32;6.00;;;8.10;99.90;;;;;;5032290;28;20216;-74
2020/12/16 08:35:31;;;;;;;12.80;7.20;;;8.20;99.90;;;;;;5031985;28;20224;-73
2020/12/16 08:38:02;;;;;;;11.27;7.40;;;8.20;99.90;;;;;;5032237;28;20241;-73
2020/12/16 08:40:30;;;;;;;12.93;6.55;;;8.20;99.90;;;;;;5034424;28;20206;-78
2020/12/16 08:43:16;;;;;;;10.23;6.82;;;8.10;99.90;;;;;;5036100;28;20220;-78
2020/12/16 08:45:42;;;;;;;11.80;8.48;;;8.00;99.90;;;;;;5033688;28;20200;-77
2020/12/16 08:48:09;;;;;;;9.32;6.22;;;7.90;99.90;;;;;;5036091;28;20204;-78
2020/12/16 08:50:35;;;;;;;10.25;6.75;;;8.00;99.90;;;;;;5035257;28;20288;-78
2020/12/16 08:53:01;;;;;;;10.25;6.75;;;8.20;99.90;;;;;;5034552;28;20651;-77
2020/12/16 08:55:35;;;;;;;11.50;6.60;;;8.30;99.90;;;;;;5031895;28;20281;-77
2020/12/16 08:58:01;;;;;;;11.77;7.25;;;8.40;99.90;;;;;;5032879;28;20203;-79
2020/12/16 09:00:31;;;;;;;11.80;7.25;;;8.40;99.90;;;;;;5036022;28;20282;-77
2020/12/16 09:03:08;;;;;;;11.70;6.80;;;8.50;99.90;;;;;;5038033;28;20216;-78
2020/12/16 09:05:37;;;;;;;11.02;7.25;;;8.50;99.90;;;;;;5033176;28;20276;-71
2020/12/16 09:08:14;;;;;;;12.65;7.13;;;8.60;99.90;;;;;;5033574;28;20238;-71
2020/12/16 09:10:43;;;;;;;11.23;6.70;;;8.40;99.90;;;;;;5035595;28;20195;-71
2020/12/16 09:13:15;;;;;;;10.70;7.10;;;8.30;99.90;;;;;;5037303;28;20227;-71
2020/12/16 09:15:46;;;;;;;19.55;9.10;;;8.30;99.90;;;;;;5037525;28;20246;-71
2020/12/16 09:18:13;;;;;;;14.15;7.82;;;8.40;99.90;;;;;;5037232;28;20597;-71
2020/12/16 09:20:40;;;;;;;14.75;7.07;;;8.60;99.90;;;;;;5037127;28;20234;-71
2020/12/16 09:23:06;;;;;;;16.05;8.50;;;8.70;99.90;;;;;;5036727;28;20224;-72
2020/12/16 09:25:33;;;;;;;9.10;6.55;;;8.80;99.90;;;;;;5037096;28;20203;-71
2020/12/16 09:28:01;;;;;;;12.82;7.38;;;8.90;99.90;;;;;;5038262;28;20294;-72
2020/12/16 09:30:32;;;;;;;10.90;7.63;;;9.00;99.90;;;;;;5037415;28;20216;-72
2020/12/16 09:33:10;;;;;;;15.02;7.30;;;9.20;99.90;;;;;;5037774;28;20223;-72
2020/12/16 09:35:36;;;;;;;11.80;7.22;;;9.10;99.90;;;;;;5037587;28;20235;-72
2020/12/16 09:38:13;;;;;;;11.75;8.27;;;8.70;99.90;;;;;;5037461;28;20659;-72
2020/12/16 09:40:39;;;;;;;11.18;8.13;;;8.50;99.90;;;;;;5037835;28;20211;-72
2020/12/16 09:43:09;;;;;;;11.05;6.80;;;8.40;99.90;;;;;;5037545;28;20250;-71
2020/12/16 09:45:37;;;;;;;10.57;7.57;;;8.50;99.90;;;;;;5037253;28;20632;-71
2020/12/16 09:48:03;;;;;;;12.80;8.48;;;8.60;99.90;;;;;;5037583;28;20206;-72
2020/12/16 09:50:32;;;;;;;11.63;7.95;;;8.60;99.90;;;;;;5037012;28;20250;-71
2020/12/16 09:53:00;;;;;;;12.20;8.10;;;8.80;99.90;;;;;;5037078;28;20267;-71
2020/12/16 09:55:28;;;;;;;12.77;7.78;;;8.90;99.90;;;;;;5036972;28;20234;-71
2020/12/16 09:57:59;;;;;;;15.13;8.25;;;9.10;99.90;;;;;;5036707;28;20674;-71
2020/12/16 10:00:27;;;;;;;11.75;7.85;;;9.20;99.90;;;;;;5036962;28;20208;-72
2020/12/16 10:02:58;;;;;;;12.35;8.45;;;9.40;99.90;;;;;;5036634;28;20319;-72
2020/12/16 10:05:24;;;;;;;14.73;8.50;;;9.30;99.90;;;;;;5036522;28;20558;-71
2020/12/16 10:07:50;;;;;;;10.00;7.88;;;9.30;99.90;;;;;;5037074;28;20226;-71
2020/12/16 10:10:18;;;;;;;11.30;7.97;;;9.30;99.90;;;;;;5036582;28;20299;-72
2020/12/16 10:12:44;;;;;;;14.02;8.38;;;9.10;99.90;;;;;;5036567;28;20204;-72
2020/12/16 10:15:10;;;;;;;15.15;8.38;;;9.20;99.90;;;;;;5036216;28;20204;-71
2020/12/16 10:17:37;;;;;;;12.07;8.45;;;9.20;99.90;;;;;;5036050;28;20658;-71
2020/12/16 10:20:05;;;;;;;15.30;9.30;;;9.00;99.90;;;;;;5036714;28;20295;-71
2020/12/16 10:22:31;;;;;;;11.90;8.07;;;9.00;99.90;;;;;;5035668;28;20204;-72
2020/12/16 10:24:57;;;;;;;11.13;7.72;;;9.00;99.90;;;;;;5035551;28;20228;-71
2020/12/16 10:27:24;;;;;;;13.40;8.68;;;9.00;99.90;;;;;;5036152;28;20299;-71
2020/12/16 10:29:50;;;;;;;12.70;8.20;;;9.00;99.90;;;;;;5036434;28;20346;-72
2020/12/16 10:32:18;;;;;;;14.55;8.40;;;8.90;99.90;;;;;;5036436;28;20243;-71
2020/12/16 10:34:46;;;;;;;19.88;10.35;;;8.70;99.90;;;;;;5035740;28;20250;-71
2020/12/16 10:37:12;;;;;;;15.13;11.10;;;8.70;99.90;;;;;;5035780;28;20712;-71
2020/12/16 10:39:38;;;;;;;19.20;12.10;;;8.90;99.90;;;;;;5035954;28;20299;-71
2020/12/16 10:42:05;;;;;;;14.07;8.82;;;9.00;99.90;;;;;;5035797;28;20223;-71
2020/12/16 10:44:31;;;;;;;17.17;10.55;;;8.80;99.90;;;;;;5035686;28;20228;-70
2020/12/16 10:46:57;;;;;;;16.65;9.50;;;8.70;99.90;;;;;;5036350;28;20720;-71
2020/12/16 10:49:25;;;;;;;15.85;9.50;;;8.60;99.90;;;;;;5037129;28;20299;-72
2020/12/16 10:51:53;;;;;;;17.23;11.05;;;8.60;99.90;;;;;;5036605;28;20200;-71
2020/12/16 10:54:21;;;;;;;14.82;9.90;;;8.50;99.90;;;;;;5036972;28;20232;-72
2020/12/16 10:56:53;;;;;;;14.40;9.60;;;8.50;99.90;;;;;;5036307;28;20739;-71
2020/12/16 10:59:19;;;;;;;15.52;9.52;;;8.50;99.90;;;;;;5036385;28;20189;-72
2020/12/16 11:01:47;;;;;;;15.88;10.07;;;8.60;99.90;;;;;;5036313;28;20207;-72
2020/12/16 11:04:13;;;;;;;17.45;10.40;;;8.60;99.90;;;;;;5035143;28;20310;-71
2020/12/16 11:06:45;;;;;;;14.40;10.50;;;8.60;99.90;;;;;;5035285;28;20292;-71
2020/12/16 11:09:12;;;;;;;18.50;10.10;;;8.60;99.90;;;;;;5035552;28;20204;-72
2020/12/16 11:11:41;;;;;;;14.85;10.73;;;8.60;99.90;;;;;;5035392;28;20210;-72
2020/12/16 11:14:07;;;;;;;16.92;10.80;;;8.60;99.90;;;;;;5035404;28;20228;-71
2020/12/16 11:16:33;;;;;;;16.60;10.80;;;8.60;99.90;;;;;;5035366;28;20227;-71
2020/12/16 11:19:01;;;;;;;16.58;10.75;;;8.60;99.90;;;;;;5035303;28;20204;-72
2020/12/16 11:21:28;;;;;;;19.23;10.00;;;8.60;99.90;;;;;;5035429;28;20200;-71
2020/12/16 11:23:55;;;;;;;17.90;11.02;;;8.60;99.90;;;;;;5035535;28;20220;-71
2020/12/16 11:26:21;;;;;;;18.75;11.30;;;8.60;99.90;;;;;;5035271;28;20710;-71
2020/12/16 11:28:47;;;;;;;15.85;10.68;;;8.60;99.90;;;;;;5035331;28;20623;-71
2020/12/16 11:31:14;;;;;;;16.50;9.65;;;8.60;99.90;;;;;;5035125;28;20311;-72
2020/12/16 11:33:41;;;;;;;18.73;10.82;;;8.60;99.90;;;;;;5034594;28;20286;-71
2020/12/16 11:36:10;;;;;;;15.07;10.07;;;8.70;99.90;;;;;;5034828;28;20314;-71
2020/12/16 11:38:36;;;;;;;15.23;10.50;;;8.60;99.90;;;;;;5035087;28;20204;-71
2020/12/16 11:41:04;;;;;;;19.88;10.25;;;8.60;99.90;;;;;;5035372;28;20204;-71
2020/12/16 11:43:30;;;;;;;20.60;12.20;;;8.60;99.90;;;;;;5035049;28;20227;-71
2020/12/16 11:45:57;;;;;;;22.63;12.25;;;8.60;99.90;;;;;;5035140;28;20200;-71
2020/12/16 11:48:23;;;;;;;16.27;11.63;;;8.70;99.90;;;;;;5034997;28;20200;-71
2020/12/16 11:50:49;;;;;;;17.10;10.15;;;8.80;99.90;;;;;;5035009;28;20290;-72
2020/12/16 11:53:16;;;;;;;16.77;10.93;;;8.90;99.90;;;;;;5034603;28;20246;-72
2020/12/16 11:55:43;;;;;;;13.57;9.45;;;8.90;99.90;;;;;;5034738;28;20578;-71
2020/12/16 11:58:09;;;;;;;19.48;10.38;;;9.00;99.90;;;;;;5034466;28;20293;-72
2020/12/16 12:00:35;;;;;;;18.17;10.80;;;9.10;99.90;;;;;;5034677;28;20291;-71
2020/12/16 12:03:02;;;;;;;20.38;11.45;;;9.10;99.90;;;;;;5034585;28;20228;-71
2020/12/16 12:05:28;;;;;;;16.63;10.15;;;9.20;99.90;;;;;;5034050;28;20579;-71
2020/12/16 12:07:54;;;;;;;16.95;10.15;;;9.30;99.90;;;;;;5034415;28;20208;-72
2020/12/16 12:10:21;;;;;;;17.55;10.85;;;9.40;99.90;;;;;;5035250;28;20204;-72
2020/12/16 12:12:48;;;;;;;15.98;10.27;;;9.50;99.90;;;;;;5034903;28;20671;-72
2020/12/16 12:15:14;;;;;;;18.55;10.80;;;9.50;99.90;;;;;;5034880;28;20319;-71
2020/12/16 12:17:40;;;;;;;13.80;9.13;;;9.50;99.90;;;;;;5034543;28;20315;-72
2020/12/16 12:20:07;;;;;;;15.70;10.95;;;9.50;99.90;;;;;;5034584;28;20204;-71
2020/12/16 12:22:33;;;;;;;15.77;10.50;;;9.40;99.90;;;;;;5034108;28;20674;-71
2020/12/16 12:24:59;;;;;;;18.58;11.02;;;9.40;99.90;;;;;;5034721;28;20204;-71
2020/12/16 12:27:27;;;;;;;19.25;10.40;;;9.50;99.90;;;;;;5034808;28;20287;-72
2020/12/16 12:29:53;;;;;;;15.82;9.82;;;9.60;99.90;;;;;;5034282;28;20295;-72
2020/12/16 12:32:19;;;;;;;15.73;9.82;;;9.70;99.90;;;;;;5034080;28;20214;-72
2020/12/16 12:34:45;;;;;;;14.95;9.88;;;9.70;99.90;;;;;;5034953;28;20318;-72
2020/12/16 12:37:12;;;;;;;15.80;9.52;;;9.70;99.90;;;;;;5034560;28;20223;-72
2020/12/16 12:39:38;;;;;;;18.98;11.10;;;9.70;99.90;;;;;;5035243;28;20200;-72
2020/12/16 12:42:04;;;;;;;15.60;10.23;;;9.70;99.90;;;;;;5034453;28;20212;-72
2020/12/16 12:44:31;;;;;;;15.93;9.77;;;9.80;99.90;;;;;;5036532;28;20314;-70
2020/12/16 12:47:00;;;;;;;16.25;10.00;;;9.80;99.90;;;;;;5038621;28;20261;-72
2020/12/16 12:49:26;;;;;;;17.00;10.00;;;9.90;99.90;;;;;;5038649;28;20204;-72
2020/12/16 12:51:53;;;;;;;13.05;8.80;;;10.00;99.90;;;;;;5038293;28;20210;-72
2020/12/16 12:54:19;;;;;;;16.58;9.35;;;10.00;99.90;;;;;;5037822;28;20724;-71